sensor_id;sensor_type;location;lat;lon;timestamp;pressure;altitude;pressure_sealevel;temperature;humidity
22688;BME280;11511;51.514;7.080;2022-07-04T00:00:06;101376.56;;;12.95;nan
22688;BME280;11511;51.514;7.080;2022-07-04T00:02:32;101382.06;;;12.89;nan
22688;BME280;11511;51.514;7.080;2022-07-04T00:04:58;101379.69;;;12.81;nan
22688;BME280;11511;51.514;7.080;2022-07-04T00:07:24;101378.72;;;12.84;nan
22688;BME280;11511;51.514;7.080;2022-07-04T00:09:50;101376.25;;;12.79;nan
22688;BME280;11511;51.514;7.080;2022-07-04T00:12:16;101378.59;;;12.87;nan
22688;BME280;11511;51.514;7.080;2022-07-04T00:14:42;101384.31;;;12.75;nan
22688;BME280;11511;51.514;7.080;2022-07-04T00:17:07;101379.94;;;12.74;nan
22688;BME280;11511;51.514;7.080;2022-07-04T00:19:33;101378.47;;;12.65;nan
22688;BME280;11511;51.514;7.080;2022-07-04T00:21:59;101385.22;;;12.74;nan
22688;BME280;11511;51.514;7.080;2022-07-04T00:24:25;101385.31;;;12.71;nan
22688;BME280;11511;51.514;7.080;2022-07-04T00:26:51;101379.22;;;12.69;nan
22688;BME280;11511;51.514;7.080;2022-07-04T00:29:17;101375.03;;;12.88;nan
22688;BME280;11511;51.514;7.080;2022-07-04T00:31:43;101367.75;;;12.70;nan
22688;BME280;11511;51.514;7.080;2022-07-04T00:34:08;101366.97;;;12.66;nan
22688;BME280;11511;51.514;7.080;2022-07-04T00:36:34;101364.22;;;12.69;nan
22688;BME280;11511;51.514;7.080;2022-07-04T00:39:00;101357.88;;;12.75;nan
22688;BME280;11511;51.514;7.080;2022-07-04T00:41:26;101355.47;;;12.94;nan
22688;BME280;11511;51.514;7.080;2022-07-04T00:44:04;101360.91;;;13.14;nan
22688;BME280;11511;51.514;7.080;2022-07-04T00:46:31;101361.59;;;13.69;nan
22688;BME280;11511;51.514;7.080;2022-07-04T00:48:57;101361.41;;;13.97;nan
22688;BME280;11511;51.514;7.080;2022-07-04T00:51:23;101365.69;;;14.22;nan
22688;BME280;11511;51.514;7.080;2022-07-04T00:53:50;101369.53;;;14.37;nan
22688;BME280;11511;51.514;7.080;2022-07-04T00:56:16;101367.13;;;14.31;nan
22688;BME280;11511;51.514;7.080;2022-07-04T00:58:42;101358.41;;;14.28;nan
22688;BME280;11511;51.514;7.080;2022-07-04T01:01:08;101362.59;;;13.89;nan
22688;BME280;11511;51.514;7.080;2022-07-04T01:03:33;101363.47;;;13.67;nan
22688;BME280;11511;51.514;7.080;2022-07-04T01:05:59;101363.91;;;13.54;nan
22688;BME280;11511;51.514;7.080;2022-07-04T01:08:25;101365.78;;;13.51;nan
22688;BME280;11511;51.514;7.080;2022-07-04T01:10:51;101367.94;;;13.65;nan
22688;BME280;11511;51.514;7.080;2022-07-04T01:13:21;101358.16;;;13.67;nan
22688;BME280;11511;51.514;7.080;2022-07-04T01:15:47;101361.84;;;13.63;nan
22688;BME280;11511;51.514;7.080;2022-07-04T01:18:12;101358.50;;;13.58;nan
22688;BME280;11511;51.514;7.080;2022-07-04T01:20:38;101358.66;;;13.53;nan
22688;BME280;11511;51.514;7.080;2022-07-04T01:23:04;101363.47;;;13.42;nan
22688;BME280;11511;51.514;7.080;2022-07-04T01:25:30;101353.75;;;13.42;nan
22688;BME280;11511;51.514;7.080;2022-07-04T01:27:57;101353.34;;;13.30;nan
22688;BME280;11511;51.514;7.080;2022-07-04T01:30:22;101352.16;;;13.38;nan
22688;BME280;11511;51.514;7.080;2022-07-04T01:32:48;101354.56;;;13.44;nan
22688;BME280;11511;51.514;7.080;2022-07-04T01:35:13;101352.22;;;13.37;nan
22688;BME280;11511;51.514;7.080;2022-07-04T01:37:39;101345.25;;;13.34;nan
22688;BME280;11511;51.514;7.080;2022-07-04T01:40:05;101353.63;;;13.22;nan
22688;BME280;11511;51.514;7.080;2022-07-04T01:42:31;101349.72;;;13.07;nan
22688;BME280;11511;51.514;7.080;2022-07-04T01:44:56;101351.03;;;12.94;nan
22688;BME280;11511;51.514;7.080;2022-07-04T01:47:22;101347.47;;;12.95;nan
22688;BME280;11511;51.514;7.080;2022-07-04T01:49:47;101342.25;;;12.94;nan
22688;BME280;11511;51.514;7.080;2022-07-04T01:52:13;101345.28;;;12.83;nan
22688;BME280;11511;51.514;7.080;2022-07-04T01:54:41;101350.50;;;12.84;nan
22688;BME280;11511;51.514;7.080;2022-07-04T01:57:06;101356.47;;;12.89;nan
22688;BME280;11511;51.514;7.080;2022-07-04T01:59:32;101350.31;;;12.89;nan
22688;BME280;11511;51.514;7.080;2022-07-04T02:02:18;101349.69;;;12.82;nan
22688;BME280;11511;51.514;7.080;2022-07-04T02:04:44;101356.88;;;12.79;nan
22688;BME280;11511;51.514;7.080;2022-07-04T02:07:09;101353.91;;;12.62;nan
22688;BME280;11511;51.514;7.080;2022-07-04T02:09:35;101358.31;;;12.61;nan
22688;BME280;11511;51.514;7.080;2022-07-04T02:12:01;101362.22;;;12.51;nan
22688;BME280;11511;51.514;7.080;2022-07-04T02:14:55;101371.31;;;12.41;nan
22688;BME280;11511;51.514;7.080;2022-07-04T02:17:21;101368.50;;;12.47;nan
22688;BME280;11511;51.514;7.080;2022-07-04T02:19:47;101362.72;;;12.34;nan
22688;BME280;11511;51.514;7.080;2022-07-04T02:22:13;101360.25;;;12.30;nan
22688;BME280;11511;51.514;7.080;2022-07-04T02:24:39;101355.13;;;12.25;nan
22688;BME280;11511;51.514;7.080;2022-07-04T02:27:05;101351.84;;;12.17;nan
22688;BME280;11511;51.514;7.080;2022-07-04T02:29:31;101362.53;;;12.12;nan
22688;BME280;11511;51.514;7.080;2022-07-04T02:31:57;101360.00;;;12.09;nan
22688;BME280;11511;51.514;7.080;2022-07-04T02:34:22;101358.34;;;12.05;nan
22688;BME280;11511;51.514;7.080;2022-07-04T02:36:48;101362.84;;;12.03;nan
22688;BME280;11511;51.514;7.080;2022-07-04T02:39:14;101369.13;;;11.99;nan
22688;BME280;11511;51.514;7.080;2022-07-04T02:41:39;101372.94;;;11.89;nan
22688;BME280;11511;51.514;7.080;2022-07-04T02:44:05;101378.28;;;12.15;nan
22688;BME280;11511;51.514;7.080;2022-07-04T02:46:31;101376.78;;;12.07;nan
22688;BME280;11511;51.514;7.080;2022-07-04T02:48:58;101379.44;;;12.07;nan
22688;BME280;11511;51.514;7.080;2022-07-04T02:51:24;101381.69;;;11.91;nan
22688;BME280;11511;51.514;7.080;2022-07-04T02:53:49;101388.00;;;11.85;nan
22688;BME280;11511;51.514;7.080;2022-07-04T02:56:15;101391.50;;;11.86;nan
22688;BME280;11511;51.514;7.080;2022-07-04T02:58:41;101399.69;;;11.77;nan
22688;BME280;11511;51.514;7.080;2022-07-04T03:01:06;101399.00;;;11.70;nan
22688;BME280;11511;51.514;7.080;2022-07-04T03:03:33;101391.13;;;11.69;nan
22688;BME280;11511;51.514;7.080;2022-07-04T03:05:58;101395.47;;;11.70;nan
22688;BME280;11511;51.514;7.080;2022-07-04T03:08:24;101393.09;;;11.61;nan
22688;BME280;11511;51.514;7.080;2022-07-04T03:10:50;101401.84;;;11.63;nan
22688;BME280;11511;51.514;7.080;2022-07-04T03:13:20;101401.09;;;11.58;nan
22688;BME280;11511;51.514;7.080;2022-07-04T03:15:46;101409.31;;;11.47;nan
22688;BME280;11511;51.514;7.080;2022-07-04T03:18:11;101413.72;;;11.46;nan
22688;BME280;11511;51.514;7.080;2022-07-04T03:20:37;101415.34;;;11.50;nan
22688;BME280;11511;51.514;7.080;2022-07-04T03:23:02;101404.84;;;11.49;nan
22688;BME280;11511;51.514;7.080;2022-07-04T03:25:29;101413.50;;;11.54;nan
22688;BME280;11511;51.514;7.080;2022-07-04T03:27:54;101411.97;;;11.47;nan
22688;BME280;11511;51.514;7.080;2022-07-04T03:30:20;101420.78;;;11.46;nan
22688;BME280;11511;51.514;7.080;2022-07-04T03:32:46;101426.88;;;11.48;nan
22688;BME280;11511;51.514;7.080;2022-07-04T03:35:12;101425.16;;;11.47;nan
22688;BME280;11511;51.514;7.080;2022-07-04T03:37:37;101426.19;;;11.41;nan
22688;BME280;11511;51.514;7.080;2022-07-04T03:40:03;101433.16;;;11.44;nan
22688;BME280;11511;51.514;7.080;2022-07-04T03:42:29;101430.53;;;11.42;nan
22688;BME280;11511;51.514;7.080;2022-07-04T03:44:55;101429.66;;;11.43;nan
22688;BME280;11511;51.514;7.080;2022-07-04T03:47:20;101442.00;;;11.41;nan
22688;BME280;11511;51.514;7.080;2022-07-04T03:49:46;101435.72;;;11.47;nan
22688;BME280;11511;51.514;7.080;2022-07-04T03:52:11;101435.41;;;11.58;nan
22688;BME280;11511;51.514;7.080;2022-07-04T03:54:37;101435.09;;;11.68;nan
22688;BME280;11511;51.514;7.080;2022-07-04T03:57:03;101437.47;;;11.79;nan
22688;BME280;11511;51.514;7.080;2022-07-04T03:59:28;101437.16;;;11.90;nan
22688;BME280;11511;51.514;7.080;2022-07-04T04:01:54;101442.19;;;11.99;nan
22688;BME280;11511;51.514;7.080;2022-07-04T04:04:20;101441.06;;;12.06;nan
22688;BME280;11511;51.514;7.080;2022-07-04T04:07:04;101452.84;;;12.25;nan
22688;BME280;11511;51.514;7.080;2022-07-04T04:09:30;101444.34;;;12.43;nan
22688;BME280;11511;51.514;7.080;2022-07-04T04:11:55;101448.44;;;12.53;nan
22688;BME280;11511;51.514;7.080;2022-07-04T04:14:21;101443.28;;;12.77;nan
22688;BME280;11511;51.514;7.080;2022-07-04T04:16:47;101444.47;;;12.95;nan
22688;BME280;11511;51.514;7.080;2022-07-04T04:19:13;101452.38;;;13.47;nan
22688;BME280;11511;51.514;7.080;2022-07-04T04:21:40;101449.59;;;14.47;nan
22688;BME280;11511;51.514;7.080;2022-07-04T04:24:06;101454.09;;;15.09;nan
22688;BME280;11511;51.514;7.080;2022-07-04T04:26:33;101466.13;;;15.99;nan
22688;BME280;11511;51.514;7.080;2022-07-04T04:28:58;101461.41;;;16.80;nan
22688;BME280;11511;51.514;7.080;2022-07-04T04:31:24;101458.88;;;17.48;nan
22688;BME280;11511;51.514;7.080;2022-07-04T04:33:50;101461.59;;;18.14;nan
22688;BME280;11511;51.514;7.080;2022-07-04T04:36:15;101463.84;;;18.37;nan
22688;BME280;11511;51.514;7.080;2022-07-04T04:38:41;101465.09;;;18.63;nan
22688;BME280;11511;51.514;7.080;2022-07-04T04:41:07;101469.88;;;18.25;nan
22688;BME280;11511;51.514;7.080;2022-07-04T04:43:33;101470.91;;;18.22;nan
22688;BME280;11511;51.514;7.080;2022-07-04T04:45:59;101475.94;;;17.26;nan
22688;BME280;11511;51.514;7.080;2022-07-04T04:48:25;101463.50;;;16.36;nan
22688;BME280;11511;51.514;7.080;2022-07-04T04:50:50;101475.97;;;15.97;nan
22688;BME280;11511;51.514;7.080;2022-07-04T04:53:16;101469.50;;;15.83;nan
22688;BME280;11511;51.514;7.080;2022-07-04T04:55:42;101475.09;;;15.96;nan
22688;BME280;11511;51.514;7.080;2022-07-04T04:58:07;101473.69;;;16.08;nan
22688;BME280;11511;51.514;7.080;2022-07-04T05:00:33;101471.84;;;15.89;nan
22688;BME280;11511;51.514;7.080;2022-07-04T05:02:59;101462.31;;;15.85;nan
22688;BME280;11511;51.514;7.080;2022-07-04T05:05:24;101464.38;;;15.79;nan
22688;BME280;11511;51.514;7.080;2022-07-04T05:07:50;101468.44;;;15.67;nan
22688;BME280;11511;51.514;7.080;2022-07-04T05:10:16;101475.41;;;15.70;nan
22688;BME280;11511;51.514;7.080;2022-07-04T05:12:42;101471.28;;;15.83;nan
22688;BME280;11511;51.514;7.080;2022-07-04T05:15:07;101475.38;;;15.90;nan
22688;BME280;11511;51.514;7.080;2022-07-04T05:17:33;101474.06;;;15.60;nan
22688;BME280;11511;51.514;7.080;2022-07-04T05:19:59;101475.69;;;16.03;nan
22688;BME280;11511;51.514;7.080;2022-07-04T05:22:25;101473.44;;;15.94;nan
22688;BME280;11511;51.514;7.080;2022-07-04T05:24:50;101470.97;;;15.70;nan
22688;BME280;11511;51.514;7.080;2022-07-04T05:27:16;101473.16;;;15.81;nan
22688;BME280;11511;51.514;7.080;2022-07-04T05:29:42;101479.41;;;15.99;nan
22688;BME280;11511;51.514;7.080;2022-07-04T05:32:08;101479.69;;;16.13;nan
22688;BME280;11511;51.514;7.080;2022-07-04T05:34:33;101475.69;;;16.03;nan
22688;BME280;11511;51.514;7.080;2022-07-04T05:37:02;101474.84;;;16.21;nan
22688;BME280;11511;51.514;7.080;2022-07-04T05:39:28;101480.41;;;15.96;nan
22688;BME280;11511;51.514;7.080;2022-07-04T05:41:54;101473.91;;;16.22;nan
22688;BME280;11511;51.514;7.080;2022-07-04T05:44:20;101485.34;;;16.05;nan
22688;BME280;11511;51.514;7.080;2022-07-04T05:46:45;101481.25;;;16.36;nan
22688;BME280;11511;51.514;7.080;2022-07-04T05:49:11;101482.13;;;16.55;nan
22688;BME280;11511;51.514;7.080;2022-07-04T05:51:37;101478.38;;;16.59;nan
22688;BME280;11511;51.514;7.080;2022-07-04T05:54:03;101481.25;;;16.36;nan
22688;BME280;11511;51.514;7.080;2022-07-04T05:56:29;101478.53;;;16.56;nan
22688;BME280;11511;51.514;7.080;2022-07-04T05:58:55;101477.59;;;16.76;nan
22688;BME280;11511;51.514;7.080;2022-07-04T06:01:21;101479.97;;;16.99;nan
22688;BME280;11511;51.514;7.080;2022-07-04T06:03:46;101477.44;;;16.79;nan
22688;BME280;11511;51.514;7.080;2022-07-04T06:06:12;101479.31;;;17.13;nan
22688;BME280;11511;51.514;7.080;2022-07-04T06:08:38;101474.72;;;16.80;nan
22688;BME280;11511;51.514;7.080;2022-07-04T06:11:03;101466.41;;;17.22;nan
22688;BME280;11511;51.514;7.080;2022-07-04T06:13:29;101464.59;;;17.23;nan
22688;BME280;11511;51.514;7.080;2022-07-04T06:15:56;101471.72;;;17.57;nan
22688;BME280;11511;51.514;7.080;2022-07-04T06:18:22;101467.56;;;17.17;nan
22688;BME280;11511;51.514;7.080;2022-07-04T06:20:47;101471.63;;;17.24;nan
22688;BME280;11511;51.514;7.080;2022-07-04T06:23:13;101475.00;;;17.27;nan
22688;BME280;11511;51.514;7.080;2022-07-04T06:25:38;101471.81;;;17.73;nan
22688;BME280;11511;51.514;7.080;2022-07-04T06:28:04;101484.34;;;17.71;nan
22688;BME280;11511;51.514;7.080;2022-07-04T06:30:30;101472.25;;;17.81;nan
22688;BME280;11511;51.514;7.080;2022-07-04T06:32:56;101475.47;;;17.87;nan
22688;BME280;11511;51.514;7.080;2022-07-04T06:35:30;101475.47;;;17.87;nan
22688;BME280;11511;51.514;7.080;2022-07-04T06:38:12;101480.25;;;17.64;nan
22688;BME280;11511;51.514;7.080;2022-07-04T06:40:38;101473.78;;;18.02;nan
22688;BME280;11511;51.514;7.080;2022-07-04T06:43:03;101476.31;;;18.37;nan
22688;BME280;11511;51.514;7.080;2022-07-04T06:45:29;101470.22;;;17.86;nan
22688;BME280;11511;51.514;7.080;2022-07-04T06:47:55;101468.31;;;17.88;nan
22688;BME280;11511;51.514;7.080;2022-07-04T06:50:21;101478.84;;;18.07;nan
22688;BME280;11511;51.514;7.080;2022-07-04T06:52:46;101472.41;;;18.11;nan
22688;BME280;11511;51.514;7.080;2022-07-04T06:55:12;101479.84;;;17.88;nan
22688;BME280;11511;51.514;7.080;2022-07-04T06:57:38;101477.59;;;18.78;nan
22688;BME280;11511;51.514;7.080;2022-07-04T07:00:04;101478.84;;;18.55;nan
22688;BME280;11511;51.514;7.080;2022-07-04T07:02:30;101482.03;;;18.46;nan
22688;BME280;11511;51.514;7.080;2022-07-04T07:04:56;101481.28;;;18.60;nan
22688;BME280;11511;51.514;7.080;2022-07-04T07:07:22;101471.03;;;18.68;nan
22688;BME280;11511;51.514;7.080;2022-07-04T07:09:50;101476.34;;;18.52;nan
22688;BME280;11511;51.514;7.080;2022-07-04T07:12:16;101484.34;;;18.52;nan
22688;BME280;11511;51.514;7.080;2022-07-04T07:14:41;101471.53;;;18.90;nan
22688;BME280;11511;51.514;7.080;2022-07-04T07:17:07;101463.38;;;18.62;nan
22688;BME280;11511;51.514;7.080;2022-07-04T07:19:34;101469.56;;;19.24;nan
22688;BME280;11511;51.514;7.080;2022-07-04T07:22:00;101483.00;;;18.77;nan
22688;BME280;11511;51.514;7.080;2022-07-04T07:24:26;101483.34;;;18.86;nan
22688;BME280;11511;51.514;7.080;2022-07-04T07:26:55;101482.56;;;18.84;nan
22688;BME280;11511;51.514;7.080;2022-07-04T07:29:21;101484.44;;;18.98;nan
22688;BME280;11511;51.514;7.080;2022-07-04T07:31:47;101480.69;;;19.16;nan
22688;BME280;11511;51.514;7.080;2022-07-04T07:34:13;101479.22;;;19.56;nan
22688;BME280;11511;51.514;7.080;2022-07-04T07:36:38;101479.91;;;19.60;nan
22688;BME280;11511;51.514;7.080;2022-07-04T07:39:04;101482.97;;;19.38;nan
22688;BME280;11511;51.514;7.080;2022-07-04T07:41:30;101482.41;;;19.77;nan
22688;BME280;11511;51.514;7.080;2022-07-04T07:43:56;101486.44;;;19.84;nan
22688;BME280;11511;51.514;7.080;2022-07-04T07:46:21;101485.47;;;20.56;nan
22688;BME280;11511;51.514;7.080;2022-07-04T07:48:47;101477.31;;;20.99;nan
22688;BME280;11511;51.514;7.080;2022-07-04T07:51:13;101474.09;;;19.68;nan
22688;BME280;11511;51.514;7.080;2022-07-04T07:53:41;101466.53;;;20.31;nan
22688;BME280;11511;51.514;7.080;2022-07-04T07:56:06;101481.84;;;21.11;nan
22688;BME280;11511;51.514;7.080;2022-07-04T07:58:32;101484.88;;;20.92;nan
22688;BME280;11511;51.514;7.080;2022-07-04T08:00:58;101483.47;;;21.66;nan
22688;BME280;11511;51.514;7.080;2022-07-04T08:03:24;101485.19;;;21.15;nan
22688;BME280;11511;51.514;7.080;2022-07-04T08:06:08;101488.69;;;22.07;nan
22688;BME280;11511;51.514;7.080;2022-07-04T08:08:35;101497.88;;;22.28;nan
22688;BME280;11511;51.514;7.080;2022-07-04T08:11:01;101488.31;;;23.91;nan
22688;BME280;11511;51.514;7.080;2022-07-04T08:13:27;101485.78;;;24.35;nan
22688;BME280;11511;51.514;7.080;2022-07-04T08:15:53;101487.56;;;25.22;nan
22688;BME280;11511;51.514;7.080;2022-07-04T08:18:19;101491.84;;;24.81;nan
22688;BME280;11511;51.514;7.080;2022-07-04T08:20:44;101488.63;;;27.04;nan
22688;BME280;11511;51.514;7.080;2022-07-04T08:23:10;101488.31;;;24.70;nan
22688;BME280;11511;51.514;7.080;2022-07-04T08:25:35;101486.91;;;26.43;nan
22688;BME280;11511;51.514;7.080;2022-07-04T08:28:01;101484.53;;;27.94;nan
22688;BME280;11511;51.514;7.080;2022-07-04T08:30:27;101487.72;;;28.54;nan
22688;BME280;11511;51.514;7.080;2022-07-04T08:32:53;101488.31;;;25.86;nan
22688;BME280;11511;51.514;7.080;2022-07-04T08:35:19;101484.03;;;28.18;nan
22688;BME280;11511;51.514;7.080;2022-07-04T08:37:45;101483.47;;;27.39;nan
22688;BME280;11511;51.514;7.080;2022-07-04T08:40:11;101491.97;;;28.39;nan
22688;BME280;11511;51.514;7.080;2022-07-04T08:42:38;101495.28;;;29.23;nan
22688;BME280;11511;51.514;7.080;2022-07-04T08:45:04;101485.63;;;30.08;nan
22688;BME280;11511;51.514;7.080;2022-07-04T08:47:34;101500.63;;;31.21;nan
22688;BME280;11511;51.514;7.080;2022-07-04T08:52:35;101496.66;;;30.49;nan
22688;BME280;11511;51.514;7.080;2022-07-04T08:55:03;101497.91;;;31.29;nan
22688;BME280;11511;51.514;7.080;2022-07-04T08:57:48;101501.22;;;33.29;nan
22688;BME280;11511;51.514;7.080;2022-07-04T09:00:32;101507.25;;;33.77;nan
22688;BME280;11511;51.514;7.080;2022-07-04T09:02:59;101490.47;;;32.66;nan
22688;BME280;11511;51.514;7.080;2022-07-04T09:05:25;101505.19;;;34.32;nan
22688;BME280;11511;51.514;7.080;2022-07-04T09:07:53;101503.59;;;36.01;nan
22688;BME280;11511;51.514;7.080;2022-07-04T09:10:19;101504.75;;;35.64;nan
22688;BME280;11511;51.514;7.080;2022-07-04T09:12:46;101499.03;;;35.59;nan
22688;BME280;11511;51.514;7.080;2022-07-04T09:15:12;101505.75;;;33.75;nan
22688;BME280;11511;51.514;7.080;2022-07-04T09:17:37;101494.69;;;36.27;nan
22688;BME280;11511;51.514;7.080;2022-07-04T09:20:11;101493.06;;;32.59;nan
22688;BME280;11511;51.514;7.080;2022-07-04T09:22:37;101478.56;;;35.12;nan
22688;BME280;11511;51.514;7.080;2022-07-04T09:25:02;101482.41;;;35.88;nan
22688;BME280;11511;51.514;7.080;2022-07-04T09:27:30;101490.00;;;37.69;nan
22688;BME280;11511;51.514;7.080;2022-07-04T09:29:56;101487.59;;;38.12;nan
22688;BME280;11511;51.514;7.080;2022-07-04T09:32:44;101488.94;;;36.22;nan
22688;BME280;11511;51.514;7.080;2022-07-04T09:35:21;101483.59;;;37.09;nan
22688;BME280;11511;51.514;7.080;2022-07-04T09:37:51;101491.34;;;36.79;nan
22688;BME280;11511;51.514;7.080;2022-07-04T09:42:46;101496.03;;;31.29;nan
22688;BME280;11511;51.514;7.080;2022-07-04T09:45:11;101476.44;;;31.91;nan
22688;BME280;11511;51.514;7.080;2022-07-04T09:47:38;101483.91;;;34.63;nan
22688;BME280;11511;51.514;7.080;2022-07-04T09:52:30;101488.28;;;36.20;nan
22688;BME280;11511;51.514;7.080;2022-07-04T09:54:59;101491.72;;;34.81;nan
22688;BME280;11511;51.514;7.080;2022-07-04T09:57:25;101483.50;;;33.63;nan
22688;BME280;11511;51.514;7.080;2022-07-04T09:59:50;101476.81;;;31.47;nan
22688;BME280;11511;51.514;7.080;2022-07-04T10:02:17;101477.94;;;33.56;nan
22688;BME280;11511;51.514;7.080;2022-07-04T10:04:43;101476.00;;;34.24;nan
22688;BME280;11511;51.514;7.080;2022-07-04T10:07:09;101472.38;;;36.43;nan
22688;BME280;11511;51.514;7.080;2022-07-04T10:09:35;101489.09;;;39.11;nan
22688;BME280;11511;51.514;7.080;2022-07-04T10:12:01;101483.88;;;35.63;nan
22688;BME280;11511;51.514;7.080;2022-07-04T10:14:27;101483.75;;;36.88;nan
22688;BME280;11511;51.514;7.080;2022-07-04T10:16:53;101477.06;;;36.08;nan
22688;BME280;11511;51.514;7.080;2022-07-04T10:19:19;101478.66;;;34.17;nan
22688;BME280;11511;51.514;7.080;2022-07-04T10:21:46;101479.50;;;33.51;nan
22688;BME280;11511;51.514;7.080;2022-07-04T10:24:12;101480.88;;;33.32;nan
22688;BME280;11511;51.514;7.080;2022-07-04T10:26:38;101474.97;;;30.57;nan
22688;BME280;11511;51.514;7.080;2022-07-04T10:29:04;101475.97;;;36.37;nan
22688;BME280;11511;51.514;7.080;2022-07-04T10:31:30;101475.16;;;37.17;nan
22688;BME280;11511;51.514;7.080;2022-07-04T10:33:57;101468.16;;;37.08;nan
22688;BME280;11511;51.514;7.080;2022-07-04T10:36:24;101479.41;;;36.66;nan
22688;BME280;11511;51.514;7.080;2022-07-04T10:38:58;101474.19;;;35.39;nan
22688;BME280;11511;51.514;7.080;2022-07-04T10:41:25;101465.38;;;39.59;nan
22688;BME280;11511;51.514;7.080;2022-07-04T10:43:51;101457.69;;;39.12;nan
22688;BME280;11511;51.514;7.080;2022-07-04T10:46:28;101472.56;;;30.54;nan
22688;BME280;11511;51.514;7.080;2022-07-04T10:54:06;101449.63;;;34.82;nan
22688;BME280;11511;51.514;7.080;2022-07-04T11:04:58;101425.44;;;27.90;nan
22688;BME280;11511;51.514;7.080;2022-07-04T11:17:57;101411.75;;;28.46;nan
22688;BME280;11511;51.514;7.080;2022-07-04T11:20:24;101413.50;;;33.62;nan
22688;BME280;11511;51.514;7.080;2022-07-04T11:22:49;101412.13;;;31.01;nan
22688;BME280;11511;51.514;7.080;2022-07-04T11:25:15;101404.44;;;28.29;nan
22688;BME280;11511;51.514;7.080;2022-07-04T11:27:41;101402.88;;;26.46;nan
22688;BME280;11511;51.514;7.080;2022-07-04T11:30:07;101394.75;;;25.24;nan
22688;BME280;11511;51.514;7.080;2022-07-04T11:32:35;101401.38;;;26.23;nan
22688;BME280;11511;51.514;7.080;2022-07-04T11:35:03;101399.78;;;30.40;nan
22688;BME280;11511;51.514;7.080;2022-07-04T11:37:29;101403.97;;;32.21;nan
22688;BME280;11511;51.514;7.080;2022-07-04T11:39:56;101403.09;;;29.83;nan
22688;BME280;11511;51.514;7.080;2022-07-04T11:43:02;101405.75;;;34.97;nan
22688;BME280;11511;51.514;7.080;2022-07-04T11:45:45;101397.53;;;28.44;nan
22688;BME280;11511;51.514;7.080;2022-07-04T11:48:19;101399.22;;;27.15;nan
22688;BME280;11511;51.514;7.080;2022-07-04T11:50:45;101399.19;;;29.52;nan
22688;BME280;11511;51.514;7.080;2022-07-04T11:53:10;101401.25;;;32.52;nan
22688;BME280;11511;51.514;7.080;2022-07-04T11:55:36;101398.19;;;30.79;nan
22688;BME280;11511;51.514;7.080;2022-07-04T11:58:04;101407.38;;;33.75;nan
22688;BME280;11511;51.514;7.080;2022-07-04T12:00:30;101410.28;;;37.23;nan
22688;BME280;11511;51.514;7.080;2022-07-04T12:03:00;101405.53;;;35.75;nan
22688;BME280;11511;51.514;7.080;2022-07-04T12:05:27;101405.69;;;32.99;nan
22688;BME280;11511;51.514;7.080;2022-07-04T12:07:53;101404.88;;;35.39;nan
22688;BME280;11511;51.514;7.080;2022-07-04T12:10:24;101404.16;;;37.14;nan
22688;BME280;11511;51.514;7.080;2022-07-04T12:12:51;101397.09;;;33.47;nan
22688;BME280;11511;51.514;7.080;2022-07-04T12:15:17;101393.53;;;35.76;nan
22688;BME280;11511;51.514;7.080;2022-07-04T12:17:43;101392.66;;;29.01;nan
22688;BME280;11511;51.514;7.080;2022-07-04T12:20:12;101384.22;;;29.04;nan
22688;BME280;11511;51.514;7.080;2022-07-04T12:22:40;101387.41;;;28.82;nan
22688;BME280;11511;51.514;7.080;2022-07-04T12:25:07;101379.66;;;28.69;nan
22688;BME280;11511;51.514;7.080;2022-07-04T12:27:34;101377.28;;;30.96;nan
22688;BME280;11511;51.514;7.080;2022-07-04T12:30:00;101374.91;;;33.80;nan
22688;BME280;11511;51.514;7.080;2022-07-04T12:35:31;101375.88;;;32.43;nan
22688;BME280;11511;51.514;7.080;2022-07-04T12:38:16;101378.53;;;33.72;nan
22688;BME280;11511;51.514;7.080;2022-07-04T12:40:52;101384.00;;;33.57;nan
22688;BME280;11511;51.514;7.080;2022-07-04T12:43:19;101378.81;;;33.92;nan
22688;BME280;11511;51.514;7.080;2022-07-04T12:45:48;101378.13;;;32.62;nan
22688;BME280;11511;51.514;7.080;2022-07-04T12:48:16;101370.31;;;31.34;nan
22688;BME280;11511;51.514;7.080;2022-07-04T12:50:43;101362.16;;;33.57;nan
22688;BME280;11511;51.514;7.080;2022-07-04T12:53:09;101365.84;;;32.67;nan
22688;BME280;11511;51.514;7.080;2022-07-04T12:55:37;101359.47;;;30.19;nan
22688;BME280;11511;51.514;7.080;2022-07-04T12:58:03;101361.88;;;33.52;nan
22688;BME280;11511;51.514;7.080;2022-07-04T13:00:28;101355.88;;;34.37;nan
22688;BME280;11511;51.514;7.080;2022-07-04T13:02:54;101353.19;;;32.96;nan
22688;BME280;11511;51.514;7.080;2022-07-04T13:05:20;101363.63;;;32.39;nan
22688;BME280;11511;51.514;7.080;2022-07-04T13:07:46;101361.47;;;32.57;nan
22688;BME280;11511;51.514;7.080;2022-07-04T13:10:12;101357.66;;;30.36;nan
22688;BME280;11511;51.514;7.080;2022-07-04T13:12:37;101347.44;;;32.07;nan
22688;BME280;11511;51.514;7.080;2022-07-04T13:15:04;101353.41;;;36.03;nan
22688;BME280;11511;51.514;7.080;2022-07-04T13:17:30;101351.88;;;35.04;nan
22688;BME280;11511;51.514;7.080;2022-07-04T13:19:58;101345.75;;;30.45;nan
22688;BME280;11511;51.514;7.080;2022-07-04T13:22:24;101348.81;;;27.33;nan
22688;BME280;11511;51.514;7.080;2022-07-04T13:24:50;101339.47;;;27.55;nan
22688;BME280;11511;51.514;7.080;2022-07-04T13:27:16;101346.72;;;32.75;nan
22688;BME280;11511;51.514;7.080;2022-07-04T13:29:42;101351.66;;;32.25;nan
22688;BME280;11511;51.514;7.080;2022-07-04T13:32:08;101348.13;;;31.53;nan
22688;BME280;11511;51.514;7.080;2022-07-04T13:34:34;101347.75;;;29.24;nan
22688;BME280;11511;51.514;7.080;2022-07-04T13:37:00;101346.44;;;26.62;nan
22688;BME280;11511;51.514;7.080;2022-07-04T13:39:26;101343.66;;;27.40;nan
22688;BME280;11511;51.514;7.080;2022-07-04T13:41:52;101337.06;;;27.05;nan